• Join FlightAware (Why Join?)
  • Login
  • US Flag 
01:39AM EST


 

Airport Tracker/Info


-or-


 

Live Flight TrackerFlight Track Log ✈ FDX1116 ✈ 18-Apr-2013 ✈ KONT - KAFW

Flight Track Log - Related Links

Times and Time Zones

All times are in EDT time to prevent confusion due to time zone crossing. See the FDX1116 flight status page for this flight to view local times or setup timezone preferences in your user account.

Time Position Orientation Groundspeed Altitude Reporting Facility
EDT Latitude Longitude Course Direction KTS MPH feet Rate Location/Type
11:12PM 34.0520 -117.6260 244° Southwest 158 182 2,400  Level FlightAware
11:12PM 34.0420 -117.6350 217° Southwest 190 219 2,900 2,520 Climbing FlightAware
11:13PM 34.0130 -117.6240 163° South 225 259 4,300 3,300 Climbing FlightAware
11:13PM 33.9890 -117.6000 140° Southeast 240 276 6,200 3,240 Climbing FlightAware
11:14PM 33.9670 -117.5780 140° Southeast 265 305 7,300 2,580 Climbing FlightAware
11:14PM 33.9370 -117.5480 140° Southeast 294 338 8,600 1,560 Climbing FlightAware
11:15PM 33.9030 -117.5170 143° Southeast 302 348 8,900 1,860 Climbing FlightAware
11:15PM 33.8560 -117.4780 145° Southeast 324 373 10,800 2,280 Climbing FlightAware
11:16PM 33.8010 -117.4310 145° Southeast 380 437 12,000 2,100 Climbing FlightAware
11:17PM 33.7390 -117.3660 139° Southeast 402 463 13,800 2,160 Climbing FlightAware
11:17PM 33.7300 -117.3390 112° Southeast 408 470 14,200 2,940 Climbing FlightAware
11:18PM 33.7200 -117.2470 97° East 413 475 16,500 3,120 Climbing FlightAware
11:18PM 33.7130 -117.1530 95° East 427 491 18,400 3,000 Climbing FlightAware
11:19PM 33.7040 -117.0430 96° East 436 502 20,800 2,820 Climbing FlightAware
11:20PM 33.6960 -116.9420 95° East 451 519 22,400 2,400 Climbing FlightAware
11:21PM 33.6880 -116.8410 95° East 463 533 24,000 2,220 Climbing FlightAware
11:21PM 33.6780 -116.7260 96° East 476 548 25,600 2,100 Climbing FlightAware
11:22PM 33.6690 -116.6220 96° East 488 562 27,000 1,920 Climbing FlightAware
11:23PM 33.6580 -116.5020 96° East 499 574 28,400 1,020 Climbing FlightAware
11:23PM 33.6520 -116.4130 95° East 499 574 28,400 1,680 Level FlightAware
11:24PM 33.6390 -116.2860 97° East 494 568 30,700 1,620 Climbing FlightAware
11:25PM 33.6310 -116.1930 96° East 494 568 30,700  Level FlightAware
11:25PM 33.6230 -116.1000 96° East 494 568 30,700  Level FlightAware
11:26PM 33.6130 -115.9840 96° East 494 568 30,700  Level FlightAware
11:27PM 33.6050 -115.8910 96° East 494 568 30,700 4,980 Level FlightAware
11:28PM 33.6300 -115.6890 81° East 496 571 37,800 5,040 Climbing FlightAware
11:28PM 33.6440 -115.5940 80° East 496 571 37,900 60 Climbing FlightAware
11:29PM 33.6580 -115.5010 80° East 496 571 37,900 720 Level FlightAware
11:30PM 33.6820 -115.3470 79° East 516 594 39,000 780 Climbing FlightAware
11:30PM 33.6960 -115.2560 79° East 516 594 39,000  Level FlightAware
11:31PM 33.7160 -115.1360 79° East 516 594 39,000  Level FlightAware
11:32PM 33.7310 -115.0400 79° East 516 594 39,000  Level FlightAware
11:32PM 33.7470 -114.9130 81° East 39,000  Level FlightAware
11:33PM 33.7590 -114.8330 80° East 504 580 39,000  Level FlightAware
11:34PM 33.7760 -114.7180 80° East 504 580 39,000  Level FlightAware
11:35PM 33.7930 -114.6000 80° East 504 580 39,000  Level FlightAware
11:35PM 33.8180 -114.4180 81° East 506 582 39,000  Level FlightAware
11:36PM 33.8320 -114.3150 81° East 507 583 39,000  Level FlightAware
11:37PM 33.8470 -114.2030 81° East 509 586 39,000  Level FlightAware
11:38PM 33.8720 -114.0210 81° East 515 593 39,000  Level FlightAware
11:38PM 33.8850 -113.9220 81° East 516 594 39,000  Level FlightAware
11:39PM 33.9030 -113.7880 81° East 518 596 39,000  Level FlightAware
11:40PM 33.9170 -113.6800 81° East 519 597 39,000  Level FlightAware
11:41PM 33.9360 -113.5310 81° East 521 600 39,000  Level FlightAware
11:41PM 33.9560 -113.3820 81° East 523 602 39,000  Level FlightAware
11:42PM 33.9700 -113.2730 81° East 523 602 39,000  Level FlightAware
11:43PM 33.9860 -113.1400 82° East 523 602 39,000  Level FlightAware
11:43PM 34.0010 -113.0220 81° East 524 603 39,000  Level FlightAware
11:44PM 34.0160 -112.9070 81° East 524 603 39,000  Level FlightAware
11:45PM 34.0320 -112.7770 82° East 524 603 39,000  Level FlightAware
11:46PM 34.0460 -112.6590 82° East 523 602 39,000  Level FlightAware
11:46PM 34.0620 -112.5290 82° East 521 600 39,000  Level FlightAware
11:47PM 34.0760 -112.4140 82° East 522 601 39,000  Level FlightAware
11:48PM 34.0880 -112.3130 82° East 523 602 39,000  Level FlightAware
11:48PM 34.1050 -112.1720 82° East 525 604 39,000  Level FlightAware
11:49PM 34.1180 -112.0620 82° East 524 603 39,000  Level FlightAware
11:50PM 34.1320 -111.9400 82° East 523 602 39,000  Level FlightAware
11:50PM 34.1470 -111.8080 82° East 521 600 39,000  Level FlightAware
11:51PM 34.1600 -111.6950 82° East 522 601 39,000  Level FlightAware
11:52PM 34.1730 -111.5800 82° East 521 600 39,000  Level FlightAware
11:53PM 34.1850 -111.4790 82° East 522 601 39,000  Level FlightAware
11:53PM 34.1980 -111.3640 82° East 520 598 39,000  Level FlightAware
11:54PM 34.2120 -111.2340 83° East 518 596 39,000  Level FlightAware
11:55PM 34.2250 -111.1170 82° East 517 595 39,000  Level FlightAware
11:55PM 34.2410 -110.9680 83° East 517 595 39,000  Level FlightAware
11:56PM 34.2540 -110.8540 82° East 517 595 39,000  Level FlightAware
11:57PM 34.2650 -110.7570 82° East 517 595 39,000  Level FlightAware
11:58PM 34.2800 -110.6350 82° East 517 595 39,000  Level FlightAware
11:58PM 34.2910 -110.5370 82° East 517 595 39,000  Level FlightAware
11:59PM 34.3020 -110.4400 82° East 517 595 39,000  Level FlightAware
12:00AM 34.3140 -110.3420 82° East 517 595 39,000  Level FlightAware
12:00AM 34.3250 -110.2450 82° East 517 595 39,000  Level FlightAware
12:01AM 34.3390 -110.1230 82° East 517 595 39,000  Level FlightAware
12:02AM 34.3500 -110.0250 82° East 517 595 39,000  Level FlightAware
12:03AM 34.3620 -109.9280 81° East 517 595 39,000  Level FlightAware
12:03AM 34.3730 -109.8300 82° East 517 595 39,000  Level FlightAware
12:04AM 34.3840 -109.7330 82° East 517 595 39,000  Level FlightAware
12:05AM 34.3980 -109.6110 82° East 517 595 39,000  Level FlightAware
12:05AM 34.4100 -109.5130 82° East 517 595 39,000  Level FlightAware
12:07AM 34.4240 -109.0300 88° East 527 606 39,000  Level FlightAware
12:07AM 34.4230 -108.8910 90° East 527 606 39,000  Level FlightAware
12:08AM 34.4230 -108.7730 90° East 529 609 39,000  Level FlightAware
12:09AM 34.4220 -108.6460 91° East 529 609 39,000  Level FlightAware
12:09AM 34.4210 -108.5570 91° East 529 609 39,000  Level FlightAware
12:10AM 34.4200 -108.4060 90° East 530 610 39,000  Level FlightAware
12:11AM 34.4190 -108.2940 91° East 530 610 39,000  Level FlightAware
12:11AM 34.4180 -108.1510 90° East 531 611 39,000  Level FlightAware
12:12AM 34.4170 -108.0530 91° East 532 612 39,000  Level FlightAware
12:13AM 34.4150 -107.9040 91° East 534 615 39,000  Level FlightAware
12:14AM 34.4130 -107.7790 91° East 533 613 39,000  Level FlightAware
12:14AM 34.4110 -107.6480 91° East 532 612 39,000  Level FlightAware
12:15AM 34.4100 -107.5260 91° East 532 612 39,000  Level FlightAware
12:16AM 34.4080 -107.3960 91° East 531 611 39,000  Level FlightAware
12:16AM 34.4060 -107.2770 91° East 530 610 39,000  Level FlightAware
12:17AM 34.4030 -107.1560 92° East 529 609 39,000  Level FlightAware
12:18AM 34.4010 -107.0490 91° East 530 610 39,000  Level FlightAware
12:18AM 34.3980 -106.9100 91° East 529 609 39,000  Level FlightAware
12:19AM 34.3960 -106.7770 91° East 532 612 39,000  Level FlightAware
12:20AM 34.3930 -106.6720 92° East 533 613 39,000  Level FlightAware
12:21AM 34.3900 -106.5200 91° East 536 617 39,000  Level FlightAware
12:21AM 34.3880 -106.4360 92° East 537 618 39,000  Level FlightAware
12:22AM 34.3840 -106.2980 92° East 538 619 39,000  Level FlightAware
12:23AM 34.3810 -106.1600 91° East 538 619 39,000  Level FlightAware
12:23AM 34.3770 -106.0250 92° East 538 619 39,000  Level FlightAware
12:24AM 34.3750 -105.9150 91° East 538 619 39,000  Level FlightAware
12:25AM 34.3730 -105.8130 91° East 538 619 39,000  Level FlightAware
12:25AM 34.3720 -105.7100 91° East 538 619 39,000  Level FlightAware
12:26AM 34.3700 -105.6080 91° East 538 619 39,000  Level FlightAware
12:27AM 34.3830 -105.3870 86° East 538 619 39,000  Level FlightAware
12:28AM 34.3900 -105.2590 86° East 538 619 39,000  Level FlightAware
12:28AM 34.3960 -105.1570 86° East 538 619 39,000  Level FlightAware
12:29AM 34.4020 -105.0540 86° East 538 619 39,000  Level FlightAware
12:30AM 34.4080 -104.9520 86° East 538 619 39,000  Level FlightAware
12:31AM 34.4150 -104.8240 86° East 538 619 39,000  Level FlightAware
12:31AM 34.4210 -104.7220 86° East 538 619 39,000  Level FlightAware
12:32AM 34.4270 -104.6190 86° East 538 619 39,000  Level FlightAware
12:33AM 34.4330 -104.5170 86° East 538 619 39,000  Level FlightAware
12:33AM 34.4390 -104.4150 86° East 538 619 39,000  Level FlightAware
12:34AM 34.4460 -104.2870 86° East 538 619 39,000  Level FlightAware
12:35AM 34.4520 -104.1840 86° East 538 619 39,000  Level FlightAware
12:35AM 34.4580 -104.0820 86° East 538 619 39,000  Level FlightAware
12:36AM 34.4640 -103.9790 86° East 538 619 39,000  Level FlightAware
12:37AM 34.4650 -103.6369 86° East 544 626 39,000  Level Fort Worth Center
12:38AM 34.4706 -103.4786 88° East 518 596 39,000  Level Fort Worth Center
12:39AM 34.4792 -103.3006 87° East 513 590 39,000  Level Fort Worth Center
12:40AM 34.4853 -103.1222 88° East 518 596 39,000  Level Fort Worth Center
12:41AM 34.4903 -102.9208 88° East 533 613 39,000  Level Fort Worth Center
12:42AM 34.4833 -102.7417 93° East 533 613 39,000  Level Fort Worth Center
12:43AM 34.4636 -102.5642 98° East 538 619 39,000  Level Fort Worth Center
12:44AM 34.4481 -102.3844 96° East 543 625 39,000  Level Fort Worth Center
12:45AM 34.4281 -102.1994 97° East 549 632 39,000  Level Fort Worth Center
12:46AM 34.4111 -102.0375 97° East 541 623 39,000  Level Fort Worth Center
12:47AM 34.3906 -101.8578 98° East 546 628 39,000 -540 Level Fort Worth Center
12:48AM 34.3683 -101.6553 98° East 546 628 38,000 -1,200 Descending Fort Worth Center
12:49AM 34.3489 -101.4883 98° East 551 634 36,600 -1,200 Descending Fort Worth Center
12:50AM 34.3264 -101.2811 97° East 556 640 35,700 -720 Descending Fort Worth Center
12:51AM 34.3083 -101.1144 97° East 561 646 35,200 -360 Descending Fort Worth Center
12:52AM 34.2850 -100.9097 98° East 561 646 35,000 -120 Descending Fort Worth Center
12:53AM 34.2628 -100.7281 98° East 561 646 35,000  Level Fort Worth Center
12:54AM 34.2425 -100.5439 98° East 561 646 35,000  Level Fort Worth Center
12:55AM 34.2197 -100.3722 99° East 561 646 35,000  Level Fort Worth Center
12:56AM 34.1778 -100.2000 106° East 556 640 35,000  Level Fort Worth Center
12:57AM 34.1189 -100.0225 112° Southeast 556 640 35,000  Level Fort Worth Center
12:58AM 34.0597 -99.8578 113° Southeast 549 632 35,000  Level Fort Worth Center
12:59AM 33.9981 -99.6908 114° Southeast 544 626 35,000  Level Fort Worth Center
01:00AM 33.9406 -99.5264 113° Southeast 532 612 35,000  Level Fort Worth Center
01:01AM 33.8806 -99.3650 114° Southeast 527 606 35,000 -660 Level Fort Worth Center
01:02AM 33.8203 -99.2011 114° Southeast 527 606 33,700 -2,460 Descending Fort Worth Center
01:03AM 33.7561 -99.0247 114° Southeast 527 606 30,100 -3,780 Descending Fort Worth Center
01:04AM 33.6953 -98.8614 114° Southeast 532 612 26,200 -2,880 Descending Fort Worth Center
01:10AM 33.3670 -97.9970 114° Southeast 385 443 10,300 -2,460 Descending FlightAware
01:10AM 33.3390 -97.9240 115° Southeast 345 397 10,000 -480 Descending FlightAware
01:11AM 33.3300 -97.9000 114° Southeast 332 382 9,900 -540 Descending FlightAware
01:11AM 33.3120 -97.8520 114° Southeast 314 361 9,600 -1,140 Descending FlightAware
01:12AM 33.2970 -97.8130 115° Southeast 314 361 8,900 -1,560 Descending FlightAware
01:12AM 33.2770 -97.7620 115° Southeast 312 359 8,200 -1,440 Descending FlightAware
01:13AM 33.2570 -97.7220 121° Southeast 314 361 7,500 -1,320 Descending FlightAware
01:13AM 33.2160 -97.6850 143° Southeast 306 352 6,800 -1,200 Descending FlightAware
01:13AM 33.1930 -97.6660 145° Southeast 301 346 6,400 -1,200 Descending FlightAware
01:14AM 33.1660 -97.6430 145° Southeast 297 342 5,900 -1,440 Descending FlightAware
01:14AM 33.1290 -97.6120 145° Southeast 293 337 5,100 -1,440 Descending FlightAware
01:15AM 33.1040 -97.5910 145° Southeast 290 334 4,600 -1,200 Descending FlightAware
01:15AM 33.0790 -97.5700 145° Southeast 285 328 4,100 -600 Descending FlightAware
01:16AM 33.0530 -97.5490 146° Southeast 285 328 4,100 -300 Level FlightAware
01:16AM 33.0170 -97.5180 144° Southeast 252 290 3,800 -300 Descending FlightAware
01:17AM 32.9890 -97.4960 147° Southeast 251 289 3,800  Level FlightAware
01:17AM 32.9660 -97.4770 145° Southeast 232 267 3,800  Level FlightAware
01:17AM 32.9520 -97.4660 147° Southeast 230 265 3,800  Level FlightAware
01:18AM 32.9230 -97.4500 155° Southeast 232 267 3,800  Level FlightAware
01:18AM 32.8940 -97.4340 155° Southeast 232 267 3,800  Level FlightAware
01:19AM 32.8690 -97.4190 153° Southeast 232 267 3,800  Level FlightAware
01:19AM 32.8410 -97.4030 154° Southeast 222 255 3,800 -180 Level FlightAware
01:20AM 32.8290 -97.3930 145° Southeast 219 252 3,700 -720 Descending FlightAware
01:20AM 32.8240 -97.3830 121° Southeast 214 246 3,500 -960 Descending FlightAware
01:20AM 32.8220 -97.3680 99° East 200 230 3,300 -960 Descending FlightAware
01:20AM 32.8200 -97.3360 94° East 191 220 2,800 -600 Descending FlightAware
01:21AM 32.8250 -97.3110 77° East 167 192 2,800  Level FlightAware
01:21AM 32.8380 -97.2910 52° Northeast 153 176 2,800  Level FlightAware
01:22AM 32.8440 -97.2890 16° North 145 167 2,800 -180 Level FlightAware
01:22AM 32.8650 -97.2930 351° North 147 169 2,700 -420 Descending FlightAware
01:23AM 32.8850 -97.2970 350° North 144 166 2,400 -780 Descending FlightAware
01:23AM 32.9110 -97.3020 351° North 151 174 1,800 -900 Descending FlightAware
01:24AM 32.9320 -97.3060 351° North 149 171 1,400 -840 Descending FlightAware
01:24AM 32.9410 -97.3080 349° North 128 147 1,200 -600 Descending FlightAware
01:25AM 32.9660 -97.3130 350° North 108 124 700 -420 Descending FlightAware
01:25AM 32.9780 -97.3160 348° North 108 124 700  Level FlightAware
01:33AM 32.9833 -97.3167 349° North  Level FlightAware Approximate